sensor_id;sensor_type;location;lat;lon;timestamp;temperature;humidity
75262;DHT22;63859;51.064;4.580;2022-09-30T00:02:22;8.70;96.50
75262;DHT22;63859;51.064;4.580;2022-09-30T00:04:47;8.70;96.50
75262;DHT22;63859;51.064;4.580;2022-09-30T00:07:14;8.70;96.40
75262;DHT22;63859;51.064;4.580;2022-09-30T00:09:40;8.60;96.50
75262;DHT22;63859;51.064;4.580;2022-09-30T00:12:05;8.60;96.40
75262;DHT22;63859;51.064;4.580;2022-09-30T00:14:31;8.60;96.60
75262;DHT22;63859;51.064;4.580;2022-09-30T00:16:56;8.60;96.60
75262;DHT22;63859;51.064;4.580;2022-09-30T00:19:22;8.60;97.10
75262;DHT22;63859;51.064;4.580;2022-09-30T00:21:48;8.60;96.80
75262;DHT22;63859;51.064;4.580;2022-09-30T00:24:13;8.60;97.00
75262;DHT22;63859;51.064;4.580;2022-09-30T00:26:40;8.60;96.90
75262;DHT22;63859;51.064;4.580;2022-09-30T00:29:06;8.60;96.90
75262;DHT22;63859;51.064;4.580;2022-09-30T00:31:33;8.60;97.00
75262;DHT22;63859;51.064;4.580;2022-09-30T00:33:59;8.60;97.00
75262;DHT22;63859;51.064;4.580;2022-09-30T00:36:45;8.60;97.00
75262;DHT22;63859;51.064;4.580;2022-09-30T00:39:17;8.70;97.00
75262;DHT22;63859;51.064;4.580;2022-09-30T00:41:45;8.70;97.10
75262;DHT22;63859;51.064;4.580;2022-09-30T00:47:38;8.60;96.90
75262;DHT22;63859;51.064;4.580;2022-09-30T00:50:26;8.50;96.90
75262;DHT22;63859;51.064;4.580;2022-09-30T00:53:15;8.50;97.00
75262;DHT22;63859;51.064;4.580;2022-09-30T00:58:10;8.40;97.20
75262;DHT22;63859;51.064;4.580;2022-09-30T01:00:37;8.40;97.20
75262;DHT22;63859;51.064;4.580;2022-09-30T01:03:03;8.40;97.20
75262;DHT22;63859;51.064;4.580;2022-09-30T01:05:31;8.30;97.00
75262;DHT22;63859;51.064;4.580;2022-09-30T01:08:00;8.30;97.20
75262;DHT22;63859;51.064;4.580;2022-09-30T01:10:26;8.20;97.10
75262;DHT22;63859;51.064;4.580;2022-09-30T01:12:52;8.10;97.30
75262;DHT22;63859;51.064;4.580;2022-09-30T01:15:20;8.10;97.70
75262;DHT22;63859;51.064;4.580;2022-09-30T01:17:58;8.20;97.50
75262;DHT22;63859;51.064;4.580;2022-09-30T01:36:37;8.20;97.60
75262;DHT22;63859;51.064;4.580;2022-09-30T01:41:52;8.10;97.50
75262;DHT22;63859;51.064;4.580;2022-09-30T01:47:25;8.10;97.60
75262;DHT22;63859;51.064;4.580;2022-09-30T01:50:02;8.10;97.70
75262;DHT22;63859;51.064;4.580;2022-09-30T01:52:57;8.10;97.70
75262;DHT22;63859;51.064;4.580;2022-09-30T01:55:37;8.00;97.70
75262;DHT22;63859;51.064;4.580;2022-09-30T01:58:08;8.00;97.90
75262;DHT22;63859;51.064;4.580;2022-09-30T02:00:39;8.00;97.80
75262;DHT22;63859;51.064;4.580;2022-09-30T02:03:46;8.00;97.80
75262;DHT22;63859;51.064;4.580;2022-09-30T02:06:18;8.10;97.80
75262;DHT22;63859;51.064;4.580;2022-09-30T02:08:59;8.00;97.70
75262;DHT22;63859;51.064;4.580;2022-09-30T02:11:29;7.90;97.80
75262;DHT22;63859;51.064;4.580;2022-09-30T02:14:28;7.90;97.80
75262;DHT22;63859;51.064;4.580;2022-09-30T02:17:03;7.90;98.00
75262;DHT22;63859;51.064;4.580;2022-09-30T02:19:45;7.80;97.80
75262;DHT22;63859;51.064;4.580;2022-09-30T02:22:21;7.80;97.70
75262;DHT22;63859;51.064;4.580;2022-09-30T02:24:55;7.80;97.70
75262;DHT22;63859;51.064;4.580;2022-09-30T02:27:26;7.80;97.80
75262;DHT22;63859;51.064;4.580;2022-09-30T02:29:58;7.80;97.90
75262;DHT22;63859;51.064;4.580;2022-09-30T02:32:48;7.80;97.90
75262;DHT22;63859;51.064;4.580;2022-09-30T02:35:49;7.80;98.20
75262;DHT22;63859;51.064;4.580;2022-09-30T02:38:19;7.90;97.90
75262;DHT22;63859;51.064;4.580;2022-09-30T02:41:16;7.90;97.70
75262;DHT22;63859;51.064;4.580;2022-09-30T02:43:45;7.80;97.70
75262;DHT22;63859;51.064;4.580;2022-09-30T02:48:54;7.80;97.70
75262;DHT22;63859;51.064;4.580;2022-09-30T02:51:40;7.80;97.70
75262;DHT22;63859;51.064;4.580;2022-09-30T02:54:19;7.80;97.90
75262;DHT22;63859;51.064;4.580;2022-09-30T02:59:45;7.80;97.70
75262;DHT22;63859;51.064;4.580;2022-09-30T03:02:10;7.70;97.80
75262;DHT22;63859;51.064;4.580;2022-09-30T03:04:37;7.80;97.70
75262;DHT22;63859;51.064;4.580;2022-09-30T03:07:06;7.80;97.70
75262;DHT22;63859;51.064;4.580;2022-09-30T03:09:34;7.70;97.70
75262;DHT22;63859;51.064;4.580;2022-09-30T03:12:13;7.70;97.70
75262;DHT22;63859;51.064;4.580;2022-09-30T03:15:17;7.60;97.50
75262;DHT22;63859;51.064;4.580;2022-09-30T03:18:09;7.50;97.70
75262;DHT22;63859;51.064;4.580;2022-09-30T03:30:00;7.40;97.70
75262;DHT22;63859;51.064;4.580;2022-09-30T03:40:07;7.20;98.10
75262;DHT22;63859;51.064;4.580;2022-09-30T03:42:46;7.20;98.20
75262;DHT22;63859;51.064;4.580;2022-09-30T03:45:25;7.40;97.80
75262;DHT22;63859;51.064;4.580;2022-09-30T03:47:58;7.10;97.50
75262;DHT22;63859;51.064;4.580;2022-09-30T03:50:27;7.20;97.80
75262;DHT22;63859;51.064;4.580;2022-09-30T03:52:54;7.00;97.50
75262;DHT22;63859;51.064;4.580;2022-09-30T03:55:21;7.00;97.50
75262;DHT22;63859;51.064;4.580;2022-09-30T03:57:48;7.00;97.60
75262;DHT22;63859;51.064;4.580;2022-09-30T04:00:14;7.00;97.70
75262;DHT22;63859;51.064;4.580;2022-09-30T04:02:40;7.00;97.70
75262;DHT22;63859;51.064;4.580;2022-09-30T04:05:06;7.10;97.80
75262;DHT22;63859;51.064;4.580;2022-09-30T04:07:33;7.10;97.70
75262;DHT22;63859;51.064;4.580;2022-09-30T04:09:58;7.10;97.80
75262;DHT22;63859;51.064;4.580;2022-09-30T04:12:24;7.10;98.20
75262;DHT22;63859;51.064;4.580;2022-09-30T04:14:50;7.10;97.80
75262;DHT22;63859;51.064;4.580;2022-09-30T04:17:16;7.10;98.00
75262;DHT22;63859;51.064;4.580;2022-09-30T04:19:42;7.10;98.00
75262;DHT22;63859;51.064;4.580;2022-09-30T04:22:08;7.20;98.00
75262;DHT22;63859;51.064;4.580;2022-09-30T04:24:34;7.20;97.90
75262;DHT22;63859;51.064;4.580;2022-09-30T04:27:00;7.10;98.00
75262;DHT22;63859;51.064;4.580;2022-09-30T04:29:26;7.20;98.00
75262;DHT22;63859;51.064;4.580;2022-09-30T04:31:52;7.20;98.10
75262;DHT22;63859;51.064;4.580;2022-09-30T04:34:17;7.20;98.10
75262;DHT22;63859;51.064;4.580;2022-09-30T04:36:43;7.20;98.20
75262;DHT22;63859;51.064;4.580;2022-09-30T04:39:09;7.20;98.20
75262;DHT22;63859;51.064;4.580;2022-09-30T04:41:34;7.20;98.20
75262;DHT22;63859;51.064;4.580;2022-09-30T04:44:00;7.20;98.10
75262;DHT22;63859;51.064;4.580;2022-09-30T04:46:31;7.20;98.20
75262;DHT22;63859;51.064;4.580;2022-09-30T04:48:58;7.20;98.30
75262;DHT22;63859;51.064;4.580;2022-09-30T04:51:24;7.30;98.30
75262;DHT22;63859;51.064;4.580;2022-09-30T04:53:49;7.40;98.30
75262;DHT22;63859;51.064;4.580;2022-09-30T04:56:15;7.30;98.20
75262;DHT22;63859;51.064;4.580;2022-09-30T04:58:42;7.30;98.30
75262;DHT22;63859;51.064;4.580;2022-09-30T05:01:10;7.30;98.30
75262;DHT22;63859;51.064;4.580;2022-09-30T05:03:37;7.30;98.20
75262;DHT22;63859;51.064;4.580;2022-09-30T05:06:04;7.20;98.20
75262;DHT22;63859;51.064;4.580;2022-09-30T05:08:30;7.20;98.00
75262;DHT22;63859;51.064;4.580;2022-09-30T05:11:07;7.20;98.10
75262;DHT22;63859;51.064;4.580;2022-09-30T05:13:36;7.20;98.10
75262;DHT22;63859;51.064;4.580;2022-09-30T05:16:03;7.10;98.00
75262;DHT22;63859;51.064;4.580;2022-09-30T05:18:29;7.10;98.10
75262;DHT22;63859;51.064;4.580;2022-09-30T05:20:56;7.10;98.10
75262;DHT22;63859;51.064;4.580;2022-09-30T05:23:23;7.10;98.10
75262;DHT22;63859;51.064;4.580;2022-09-30T05:25:50;7.10;98.40
75262;DHT22;63859;51.064;4.580;2022-09-30T05:28:16;7.10;98.10
75262;DHT22;63859;51.064;4.580;2022-09-30T05:30:43;7.10;98.00
75262;DHT22;63859;51.064;4.580;2022-09-30T05:33:11;7.10;98.10
75262;DHT22;63859;51.064;4.580;2022-09-30T05:35:39;7.10;98.10
75262;DHT22;63859;51.064;4.580;2022-09-30T05:38:05;7.10;98.20
75262;DHT22;63859;51.064;4.580;2022-09-30T05:40:31;7.10;98.30
75262;DHT22;63859;51.064;4.580;2022-09-30T05:42:57;7.10;98.30
75262;DHT22;63859;51.064;4.580;2022-09-30T05:45:24;7.10;98.30
75262;DHT22;63859;51.064;4.580;2022-09-30T05:47:53;7.10;98.20
75262;DHT22;63859;51.064;4.580;2022-09-30T05:50:21;7.10;98.10
75262;DHT22;63859;51.064;4.580;2022-09-30T05:52:46;7.10;98.40
75262;DHT22;63859;51.064;4.580;2022-09-30T05:55:13;7.20;98.60
75262;DHT22;63859;51.064;4.580;2022-09-30T05:57:39;7.20;98.50
75262;DHT22;63859;51.064;4.580;2022-09-30T06:00:05;7.20;98.30
75262;DHT22;63859;51.064;4.580;2022-09-30T06:02:31;7.10;98.30
75262;DHT22;63859;51.064;4.580;2022-09-30T06:04:57;7.10;98.20
75262;DHT22;63859;51.064;4.580;2022-09-30T06:07:23;7.10;98.30
75262;DHT22;63859;51.064;4.580;2022-09-30T06:09:49;7.10;98.40
75262;DHT22;63859;51.064;4.580;2022-09-30T06:12:15;7.20;98.30
75262;DHT22;63859;51.064;4.580;2022-09-30T06:14:40;7.20;98.40
75262;DHT22;63859;51.064;4.580;2022-09-30T06:17:06;7.20;98.30
75262;DHT22;63859;51.064;4.580;2022-09-30T06:19:31;7.30;98.30
75262;DHT22;63859;51.064;4.580;2022-09-30T06:21:57;7.20;98.20
75262;DHT22;63859;51.064;4.580;2022-09-30T06:24:23;7.30;98.20
75262;DHT22;63859;51.064;4.580;2022-09-30T06:26:49;7.30;98.20
75262;DHT22;63859;51.064;4.580;2022-09-30T06:29:15;7.30;98.30
75262;DHT22;63859;51.064;4.580;2022-09-30T06:31:41;7.30;98.20
75262;DHT22;63859;51.064;4.580;2022-09-30T06:34:06;7.40;98.20
75262;DHT22;63859;51.064;4.580;2022-09-30T06:36:32;7.30;98.00
75262;DHT22;63859;51.064;4.580;2022-09-30T06:38:59;7.30;98.00
75262;DHT22;63859;51.064;4.580;2022-09-30T06:41:25;7.30;98.10
75262;DHT22;63859;51.064;4.580;2022-09-30T06:43:52;7.30;98.10
75262;DHT22;63859;51.064;4.580;2022-09-30T06:46:17;7.30;97.90
75262;DHT22;63859;51.064;4.580;2022-09-30T06:48:43;7.20;97.90
75262;DHT22;63859;51.064;4.580;2022-09-30T06:51:08;7.30;98.00
75262;DHT22;63859;51.064;4.580;2022-09-30T06:53:36;7.30;98.10
75262;DHT22;63859;51.064;4.580;2022-09-30T06:56:02;7.30;98.10
75262;DHT22;63859;51.064;4.580;2022-09-30T06:58:28;7.30;98.30
75262;DHT22;63859;51.064;4.580;2022-09-30T07:01:01;7.30;98.30
75262;DHT22;63859;51.064;4.580;2022-09-30T07:03:32;7.30;98.30
75262;DHT22;63859;51.064;4.580;2022-09-30T07:05:59;7.40;98.30
75262;DHT22;63859;51.064;4.580;2022-09-30T07:08:27;7.50;98.30
75262;DHT22;63859;51.064;4.580;2022-09-30T07:11:04;7.50;98.40
75262;DHT22;63859;51.064;4.580;2022-09-30T07:13:30;7.60;98.40
75262;DHT22;63859;51.064;4.580;2022-09-30T07:15:57;7.60;98.40
75262;DHT22;63859;51.064;4.580;2022-09-30T07:18:24;7.70;98.50
75262;DHT22;63859;51.064;4.580;2022-09-30T07:20:53;7.70;98.50
75262;DHT22;63859;51.064;4.580;2022-09-30T07:23:19;7.80;98.60
75262;DHT22;63859;51.064;4.580;2022-09-30T07:25:56;7.80;98.60
75262;DHT22;63859;51.064;4.580;2022-09-30T07:28:24;7.90;98.70
75262;DHT22;63859;51.064;4.580;2022-09-30T07:30:56;8.00;98.70
75262;DHT22;63859;51.064;4.580;2022-09-30T07:33:23;8.10;98.70
75262;DHT22;63859;51.064;4.580;2022-09-30T07:35:55;8.20;98.70
75262;DHT22;63859;51.064;4.580;2022-09-30T07:38:23;8.30;98.90
75262;DHT22;63859;51.064;4.580;2022-09-30T07:40:59;8.40;98.90
75262;DHT22;63859;51.064;4.580;2022-09-30T07:43:28;8.40;98.90
75262;DHT22;63859;51.064;4.580;2022-09-30T07:46:24;8.60;99.00
75262;DHT22;63859;51.064;4.580;2022-09-30T07:48:52;8.60;98.90
75262;DHT22;63859;51.064;4.580;2022-09-30T07:51:26;8.70;99.00
75262;DHT22;63859;51.064;4.580;2022-09-30T07:53:56;8.80;99.00
75262;DHT22;63859;51.064;4.580;2022-09-30T07:56:23;8.80;99.10
75262;DHT22;63859;51.064;4.580;2022-09-30T07:58:53;8.90;99.00
75262;DHT22;63859;51.064;4.580;2022-09-30T08:01:20;9.00;99.00
75262;DHT22;63859;51.064;4.580;2022-09-30T08:03:45;9.10;99.00
75262;DHT22;63859;51.064;4.580;2022-09-30T08:06:14;9.20;99.00
75262;DHT22;63859;51.064;4.580;2022-09-30T08:08:41;9.20;98.80
75262;DHT22;63859;51.064;4.580;2022-09-30T08:11:08;9.30;98.90
75262;DHT22;63859;51.064;4.580;2022-09-30T08:13:34;9.40;98.90
75262;DHT22;63859;51.064;4.580;2022-09-30T08:16:00;9.50;98.90
75262;DHT22;63859;51.064;4.580;2022-09-30T08:18:26;9.60;99.00
75262;DHT22;63859;51.064;4.580;2022-09-30T08:20:52;9.70;98.90
75262;DHT22;63859;51.064;4.580;2022-09-30T08:23:18;9.80;99.00
75262;DHT22;63859;51.064;4.580;2022-09-30T08:25:43;10.00;98.40
75262;DHT22;63859;51.064;4.580;2022-09-30T08:28:09;10.00;98.40
75262;DHT22;63859;51.064;4.580;2022-09-30T08:30:36;10.10;98.40
75262;DHT22;63859;51.064;4.580;2022-09-30T08:33:01;10.20;98.40
75262;DHT22;63859;51.064;4.580;2022-09-30T08:35:27;10.30;98.30
75262;DHT22;63859;51.064;4.580;2022-09-30T08:37:53;10.40;98.20
75262;DHT22;63859;51.064;4.580;2022-09-30T08:40:27;10.50;97.90
75262;DHT22;63859;51.064;4.580;2022-09-30T08:43:20;10.60;97.90
75262;DHT22;63859;51.064;4.580;2022-09-30T08:45:56;10.70;97.80
75262;DHT22;63859;51.064;4.580;2022-09-30T08:51:40;10.90;97.50
75262;DHT22;63859;51.064;4.580;2022-09-30T08:54:12;11.10;97.40
75262;DHT22;63859;51.064;4.580;2022-09-30T08:56:39;11.20;97.20
75262;DHT22;63859;51.064;4.580;2022-09-30T09:04:47;11.50;96.60
75262;DHT22;63859;51.064;4.580;2022-09-30T09:18:06;12.00;96.10
75262;DHT22;63859;51.064;4.580;2022-09-30T09:20:39;12.10;96.00
75262;DHT22;63859;51.064;4.580;2022-09-30T09:23:09;12.20;95.90
75262;DHT22;63859;51.064;4.580;2022-09-30T09:25:36;12.30;95.70
75262;DHT22;63859;51.064;4.580;2022-09-30T09:28:05;12.40;95.60
75262;DHT22;63859;51.064;4.580;2022-09-30T09:30:44;12.50;95.30
75262;DHT22;63859;51.064;4.580;2022-09-30T09:33:29;12.60;95.30
75262;DHT22;63859;51.064;4.580;2022-09-30T09:47:11;13.00;94.00
75262;DHT22;63859;51.064;4.580;2022-09-30T09:49:44;13.10;94.10
75262;DHT22;63859;51.064;4.580;2022-09-30T09:54:40;13.30;94.10
75262;DHT22;63859;51.064;4.580;2022-09-30T09:57:11;13.30;93.70
75262;DHT22;63859;51.064;4.580;2022-09-30T09:59:56;13.40;93.60
75262;DHT22;63859;51.064;4.580;2022-09-30T10:02:29;13.60;93.30
75262;DHT22;63859;51.064;4.580;2022-09-30T10:04:56;13.80;93.50
75262;DHT22;63859;51.064;4.580;2022-09-30T10:07:27;13.70;93.30
75262;DHT22;63859;51.064;4.580;2022-09-30T10:10:17;13.80;93.00
75262;DHT22;63859;51.064;4.580;2022-09-30T10:12:44;13.90;92.70
75262;DHT22;63859;51.064;4.580;2022-09-30T10:15:21;14.00;92.40
75262;DHT22;63859;51.064;4.580;2022-09-30T10:17:56;14.10;92.20
75262;DHT22;63859;51.064;4.580;2022-09-30T10:23:02;14.30;92.10
75262;DHT22;63859;51.064;4.580;2022-09-30T10:25:28;14.40;91.80
75262;DHT22;63859;51.064;4.580;2022-09-30T10:27:59;14.60;91.60
75262;DHT22;63859;51.064;4.580;2022-09-30T10:30:48;14.70;91.50
75262;DHT22;63859;51.064;4.580;2022-09-30T10:33:22;14.80;90.50
75262;DHT22;63859;51.064;4.580;2022-09-30T10:35:58;14.90;90.50
75262;DHT22;63859;51.064;4.580;2022-09-30T10:38:26;14.90;90.00
75262;DHT22;63859;51.064;4.580;2022-09-30T10:40:54;15.00;89.70
75262;DHT22;63859;51.064;4.580;2022-09-30T10:43:28;15.00;88.00
75262;DHT22;63859;51.064;4.580;2022-09-30T10:45:56;15.10;88.60
75262;DHT22;63859;51.064;4.580;2022-09-30T10:48:24;15.20;88.30
75262;DHT22;63859;51.064;4.580;2022-09-30T10:50:53;15.30;88.10
75262;DHT22;63859;51.064;4.580;2022-09-30T10:53:26;15.50;86.90
75262;DHT22;63859;51.064;4.580;2022-09-30T10:55:54;15.70;85.60
75262;DHT22;63859;51.064;4.580;2022-09-30T11:00:53;15.60;84.70
75262;DHT22;63859;51.064;4.580;2022-09-30T11:03:24;15.60;86.20
75262;DHT22;63859;51.064;4.580;2022-09-30T11:05:52;15.60;85.30
75262;DHT22;63859;51.064;4.580;2022-09-30T11:11:01;15.80;85.20
75262;DHT22;63859;51.064;4.580;2022-09-30T11:16:27;16.10;82.40
75262;DHT22;63859;51.064;4.580;2022-09-30T11:27:04;16.30;79.30
75262;DHT22;63859;51.064;4.580;2022-09-30T11:32:21;16.40;78.00
75262;DHT22;63859;51.064;4.580;2022-09-30T11:46:45;16.80;77.30
75262;DHT22;63859;51.064;4.580;2022-09-30T11:52:08;16.90;75.10
75262;DHT22;63859;51.064;4.580;2022-09-30T11:57:26;16.90;74.80
75262;DHT22;63859;51.064;4.580;2022-09-30T12:00:14;16.90;74.80
75262;DHT22;63859;51.064;4.580;2022-09-30T12:10:42;16.80;74.10
75262;DHT22;63859;51.064;4.580;2022-09-30T12:13:21;16.70;73.90
75262;DHT22;63859;51.064;4.580;2022-09-30T12:15:48;16.80;74.80
75262;DHT22;63859;51.064;4.580;2022-09-30T12:18:21;17.10;73.50
75262;DHT22;63859;51.064;4.580;2022-09-30T12:20:54;17.10;74.30
75262;DHT22;63859;51.064;4.580;2022-09-30T12:23:37;17.40;73.40
75262;DHT22;63859;51.064;4.580;2022-09-30T12:26:05;17.70;73.10
75262;DHT22;63859;51.064;4.580;2022-09-30T12:28:45;17.80;72.80
75262;DHT22;63859;51.064;4.580;2022-09-30T12:40:36;18.00;71.90
75262;DHT22;63859;51.064;4.580;2022-09-30T12:48:21;18.40;71.20
75262;DHT22;63859;51.064;4.580;2022-09-30T12:50:50;18.20;70.10
75262;DHT22;63859;51.064;4.580;2022-09-30T12:53:27;18.00;72.60
75262;DHT22;63859;51.064;4.580;2022-09-30T12:55:54;17.60;72.60
75262;DHT22;63859;51.064;4.580;2022-09-30T12:58:34;17.30;73.60
75262;DHT22;63859;51.064;4.580;2022-09-30T13:01:31;17.20;73.90
75262;DHT22;63859;51.064;4.580;2022-09-30T13:06:27;17.20;75.00
75262;DHT22;63859;51.064;4.580;2022-09-30T13:09:29;17.40;74.90
75262;DHT22;63859;51.064;4.580;2022-09-30T13:27:49;17.50;73.90
75262;DHT22;63859;51.064;4.580;2022-09-30T13:32:47;17.60;72.80
75262;DHT22;63859;51.064;4.580;2022-09-30T13:35:35;17.50;73.20
75262;DHT22;63859;51.064;4.580;2022-09-30T13:43:37;17.70;73.10
75262;DHT22;63859;51.064;4.580;2022-09-30T13:48:38;17.80;71.90
75262;DHT22;63859;51.064;4.580;2022-09-30T13:51:12;17.80;70.10
75262;DHT22;63859;51.064;4.580;2022-09-30T13:53:40;17.80;71.10
75262;DHT22;63859;51.064;4.580;2022-09-30T13:56:27;17.90;72.10
75262;DHT22;63859;51.064;4.580;2022-09-30T14:13:38;18.10;70.40
75262;DHT22;63859;51.064;4.580;2022-09-30T14:16:10;17.90;70.90
75262;DHT22;63859;51.064;4.580;2022-09-30T14:21:38;17.80;72.10
75262;DHT22;63859;51.064;4.580;2022-09-30T14:29:52;17.40;72.20
75262;DHT22;63859;51.064;4.580;2022-09-30T14:32:48;17.40;72.60
75262;DHT22;63859;51.064;4.580;2022-09-30T14:35:25;17.40;72.90
75262;DHT22;63859;51.064;4.580;2022-09-30T14:38:03;17.40;72.80
75262;DHT22;63859;51.064;4.580;2022-09-30T14:40:33;17.40;72.30
75262;DHT22;63859;51.064;4.580;2022-09-30T14:43:05;17.40;72.50
75262;DHT22;63859;51.064;4.580;2022-09-30T14:45:34;17.40;73.00
75262;DHT22;63859;51.064;4.580;2022-09-30T14:48:05;17.30;73.70
75262;DHT22;63859;51.064;4.580;2022-09-30T14:50:36;17.30;74.40
75262;DHT22;63859;51.064;4.580;2022-09-30T14:53:04;17.20;74.30
75262;DHT22;63859;51.064;4.580;2022-09-30T14:55:32;17.20;74.50
75262;DHT22;63859;51.064;4.580;2022-09-30T14:58:19;17.20;73.90
75262;DHT22;63859;51.064;4.580;2022-09-30T15:01:19;17.20;74.50
75262;DHT22;63859;51.064;4.580;2022-09-30T15:03:55;17.10;75.10
75262;DHT22;63859;51.064;4.580;2022-09-30T15:06:27;17.10;74.50
75262;DHT22;63859;51.064;4.580;2022-09-30T15:09:28;17.10;75.20
75262;DHT22;63859;51.064;4.580;2022-09-30T15:12:05;17.20;75.30
75262;DHT22;63859;51.064;4.580;2022-09-30T15:14:32;17.20;75.20
75262;DHT22;63859;51.064;4.580;2022-09-30T15:16:58;17.20;75.40
75262;DHT22;63859;51.064;4.580;2022-09-30T15:19:31;17.20;74.50
75262;DHT22;63859;51.064;4.580;2022-09-30T15:22:01;17.10;74.20
75262;DHT22;63859;51.064;4.580;2022-09-30T15:24:29;17.10;74.30
75262;DHT22;63859;51.064;4.580;2022-09-30T15:26:57;17.30;74.60
75262;DHT22;63859;51.064;4.580;2022-09-30T15:29:24;17.40;73.60
75262;DHT22;63859;51.064;4.580;2022-09-30T15:31:59;17.50;72.70
75262;DHT22;63859;51.064;4.580;2022-09-30T15:34:26;17.60;70.80
75262;DHT22;63859;51.064;4.580;2022-09-30T15:37:01;17.50;70.60
75262;DHT22;63859;51.064;4.580;2022-09-30T15:39:39;17.60;70.40
75262;DHT22;63859;51.064;4.580;2022-09-30T15:42:36;17.50;70.30
75262;DHT22;63859;51.064;4.580;2022-09-30T15:45:31;17.50;70.20
75262;DHT22;63859;51.064;4.580;2022-09-30T15:48:03;17.30;71.00
75262;DHT22;63859;51.064;4.580;2022-09-30T15:50:44;17.30;71.40
75262;DHT22;63859;51.064;4.580;2022-09-30T15:53:22;17.20;71.50
75262;DHT22;63859;51.064;4.580;2022-09-30T15:55:49;17.20;71.70
75262;DHT22;63859;51.064;4.580;2022-09-30T15:58:35;17.10;72.00
75262;DHT22;63859;51.064;4.580;2022-09-30T16:03:38;17.10;71.70
75262;DHT22;63859;51.064;4.580;2022-09-30T16:06:09;17.10;72.10
75262;DHT22;63859;51.064;4.580;2022-09-30T16:08:42;17.10;71.10
75262;DHT22;63859;51.064;4.580;2022-09-30T16:11:09;17.10;71.70
75262;DHT22;63859;51.064;4.580;2022-09-30T16:13:42;17.10;71.80
75262;DHT22;63859;51.064;4.580;2022-09-30T16:16:19;17.00;72.30
75262;DHT22;63859;51.064;4.580;2022-09-30T16:18:46;16.90;71.90
75262;DHT22;63859;51.064;4.580;2022-09-30T16:23:52;16.60;72.10
75262;DHT22;63859;51.064;4.580;2022-09-30T16:26:26;16.50;72.60
75262;DHT22;63859;51.064;4.580;2022-09-30T16:28:53;16.40;71.70
75262;DHT22;63859;51.064;4.580;2022-09-30T16:31:23;16.30;72.10
75262;DHT22;63859;51.064;4.580;2022-09-30T16:33:49;16.20;72.40
75262;DHT22;63859;51.064;4.580;2022-09-30T16:36:15;16.20;72.70
75262;DHT22;63859;51.064;4.580;2022-09-30T16:38:41;16.10;73.30
75262;DHT22;63859;51.064;4.580;2022-09-30T16:41:11;16.00;74.00
75262;DHT22;63859;51.064;4.580;2022-09-30T16:43:37;15.90;74.60
75262;DHT22;63859;51.064;4.580;2022-09-30T16:46:03;15.90;75.00
75262;DHT22;63859;51.064;4.580;2022-09-30T16:48:29;15.80;75.40
75262;DHT22;63859;51.064;4.580;2022-09-30T16:51:14;15.70;75.40
75262;DHT22;63859;51.064;4.580;2022-09-30T16:53:40;15.60;75.70
75262;DHT22;63859;51.064;4.580;2022-09-30T16:56:10;15.60;75.60
75262;DHT22;63859;51.064;4.580;2022-09-30T16:58:37;15.50;76.20
75262;DHT22;63859;51.064;4.580;2022-09-30T17:01:03;15.40;76.80
75262;DHT22;63859;51.064;4.580;2022-09-30T17:03:29;15.40;77.20
75262;DHT22;63859;51.064;4.580;2022-09-30T17:05:55;15.30;77.30
75262;DHT22;63859;51.064;4.580;2022-09-30T17:08:21;15.30;77.80
75262;DHT22;63859;51.064;4.580;2022-09-30T17:10:48;15.20;77.80
75262;DHT22;63859;51.064;4.580;2022-09-30T17:13:15;15.20;78.20
75262;DHT22;63859;51.064;4.580;2022-09-30T17:15:42;15.10;78.20
75262;DHT22;63859;51.064;4.580;2022-09-30T17:18:11;15.10;78.40
75262;DHT22;63859;51.064;4.580;2022-09-30T17:20:36;15.00;78.80
75262;DHT22;63859;51.064;4.580;2022-09-30T17:23:06;15.00;79.20
75262;DHT22;63859;51.064;4.580;2022-09-30T17:25:32;14.90;79.40
75262;DHT22;63859;51.064;4.580;2022-09-30T17:27:57;14.90;79.80
75262;DHT22;63859;51.064;4.580;2022-09-30T17:30:23;14.80;79.80
75262;DHT22;63859;51.064;4.580;2022-09-30T17:32:49;14.70;79.90
75262;DHT22;63859;51.064;4.580;2022-09-30T17:35:16;14.70;80.30
75262;DHT22;63859;51.064;4.580;2022-09-30T17:37:42;14.60;80.50
75262;DHT22;63859;51.064;4.580;2022-09-30T17:40:09;14.60;80.70
75262;DHT22;63859;51.064;4.580;2022-09-30T17:42:53;14.50;80.90
75262;DHT22;63859;51.064;4.580;2022-09-30T17:45:40;14.50;80.90
75262;DHT22;63859;51.064;4.580;2022-09-30T17:48:06;14.40;80.80
75262;DHT22;63859;51.064;4.580;2022-09-30T17:50:35;14.40;81.10
75262;DHT22;63859;51.064;4.580;2022-09-30T17:53:00;14.30;81.10
75262;DHT22;63859;51.064;4.580;2022-09-30T17:55:27;14.30;81.30
75262;DHT22;63859;51.064;4.580;2022-09-30T17:57:53;14.30;81.40
75262;DHT22;63859;51.064;4.580;2022-09-30T18:00:20;14.20;81.40
75262;DHT22;63859;51.064;4.580;2022-09-30T18:02:46;14.20;81.60
75262;DHT22;63859;51.064;4.580;2022-09-30T18:05:12;14.10;81.40
75262;DHT22;63859;51.064;4.580;2022-09-30T18:07:39;14.10;81.40
75262;DHT22;63859;51.064;4.580;2022-09-30T18:10:05;14.10;81.80
75262;DHT22;63859;51.064;4.580;2022-09-30T18:12:32;14.00;82.10
75262;DHT22;63859;51.064;4.580;2022-09-30T18:14:58;14.00;82.00
75262;DHT22;63859;51.064;4.580;2022-09-30T18:17:24;14.00;82.40
75262;DHT22;63859;51.064;4.580;2022-09-30T18:19:50;13.90;82.50
75262;DHT22;63859;51.064;4.580;2022-09-30T18:22:15;13.90;82.50
75262;DHT22;63859;51.064;4.580;2022-09-30T18:24:41;13.90;82.90
75262;DHT22;63859;51.064;4.580;2022-09-30T18:27:25;13.80;82.60
75262;DHT22;63859;51.064;4.580;2022-09-30T18:29:52;13.80;83.00
75262;DHT22;63859;51.064;4.580;2022-09-30T18:32:18;13.80;83.00
75262;DHT22;63859;51.064;4.580;2022-09-30T18:34:43;13.80;83.20
75262;DHT22;63859;51.064;4.580;2022-09-30T18:37:09;13.80;83.20
75262;DHT22;63859;51.064;4.580;2022-09-30T18:39:35;13.80;83.40
75262;DHT22;63859;51.064;4.580;2022-09-30T18:42:04;13.70;83.40
75262;DHT22;63859;51.064;4.580;2022-09-30T18:44:30;13.70;83.80
75262;DHT22;63859;51.064;4.580;2022-09-30T18:47:00;13.70;83.90
75262;DHT22;63859;51.064;4.580;2022-09-30T18:49:25;13.70;83.80
75262;DHT22;63859;51.064;4.580;2022-09-30T18:51:51;13.70;83.90
75262;DHT22;63859;51.064;4.580;2022-09-30T18:54:17;13.70;84.00
75262;DHT22;63859;51.064;4.580;2022-09-30T18:56:42;13.70;84.10
75262;DHT22;63859;51.064;4.580;2022-09-30T18:59:09;13.70;84.10
75262;DHT22;63859;51.064;4.580;2022-09-30T19:01:42;13.70;84.20
75262;DHT22;63859;51.064;4.580;2022-09-30T19:04:09;13.70;85.00
75262;DHT22;63859;51.064;4.580;2022-09-30T19:06:36;13.60;84.30
75262;DHT22;63859;51.064;4.580;2022-09-30T19:09:02;13.60;84.20
75262;DHT22;63859;51.064;4.580;2022-09-30T19:11:28;13.60;84.60
75262;DHT22;63859;51.064;4.580;2022-09-30T19:13:54;13.60;84.70
75262;DHT22;63859;51.064;4.580;2022-09-30T19:16:25;13.60;84.60
75262;DHT22;63859;51.064;4.580;2022-09-30T19:18:53;13.60;85.10
75262;DHT22;63859;51.064;4.580;2022-09-30T19:21:20;13.60;84.40
75262;DHT22;63859;51.064;4.580;2022-09-30T19:23:46;13.60;84.40